createdAt,value
2023-04-29T00:01:51.985Z,7.13
2023-04-29T00:04:20.327Z,7.09
2023-04-29T00:06:48.469Z,7.05
2023-04-29T00:09:16.476Z,7.03
2023-04-29T00:11:44.382Z,7.06
2023-04-29T00:14:12.415Z,7.08
2023-04-29T00:16:40.801Z,7.09
2023-04-29T00:19:08.692Z,7.11
2023-04-29T00:21:36.546Z,7.15
2023-04-29T00:24:04.612Z,7.20
2023-04-29T00:26:32.662Z,7.23
2023-04-29T00:29:00.643Z,7.26
2023-04-29T00:31:28.693Z,7.30
2023-04-29T00:33:58.173Z,7.34
2023-04-29T00:36:26.453Z,7.40
2023-04-29T00:38:54.425Z,7.44
2023-04-29T00:41:22.413Z,7.50
2023-04-29T00:43:50.301Z,7.52
2023-04-29T00:46:18.896Z,7.55
2023-04-29T00:48:47.019Z,7.56
2023-04-29T00:51:18.068Z,7.59
2023-04-29T00:53:47.027Z,7.63
2023-04-29T00:56:17.296Z,7.66
2023-04-29T00:58:50.483Z,7.70
2023-04-29T01:01:20.301Z,7.73
2023-04-29T01:03:49.228Z,7.74
2023-04-29T01:06:53.459Z,7.77
2023-04-29T01:09:52.421Z,7.80
2023-04-29T01:12:49.724Z,7.83
2023-04-29T01:15:23.928Z,7.85
2023-04-29T01:18:16.017Z,8.18
2023-04-29T01:20:44.958Z,10.37
2023-04-29T01:23:12.848Z,12.05
2023-04-29T01:25:43.040Z,12.84
2023-04-29T01:28:54.795Z,12.00
2023-04-29T01:31:38.921Z,10.95
2023-04-29T01:34:34.709Z,10.43
2023-04-29T01:37:10.662Z,10.08
2023-04-29T01:40:22.796Z,9.84
2023-04-29T01:43:12.999Z,9.60
2023-04-29T01:45:45.174Z,9.44
2023-04-29T01:48:14.889Z,9.28
2023-04-29T01:50:43.298Z,9.17
2023-04-29T01:53:15.973Z,9.08
2023-04-29T01:55:44.352Z,9.01
2023-04-29T01:58:26.170Z,8.95
2023-04-29T02:01:07.371Z,8.90
2023-04-29T02:03:36.809Z,8.87
2023-04-29T02:06:07.283Z,8.83
2023-04-29T02:08:37.500Z,8.79
2023-04-29T02:11:05.974Z,8.76
2023-04-29T02:13:41.208Z,8.72
2023-04-29T02:16:14.969Z,8.70
2023-04-29T02:18:51.489Z,8.67
2023-04-29T02:21:19.363Z,8.65
2023-04-29T02:23:47.392Z,8.62
2023-04-29T02:26:15.543Z,8.58
2023-04-29T02:28:44.370Z,8.55
2023-04-29T02:31:13.096Z,8.82
2023-04-29T02:33:41.948Z,10.80
2023-04-29T02:36:10.714Z,12.71
2023-04-29T02:38:38.780Z,13.54
2023-04-29T02:41:06.779Z,12.73
2023-04-29T02:43:34.722Z,11.76
2023-04-29T02:46:02.809Z,11.14
2023-04-29T02:48:30.876Z,10.72
2023-04-29T02:50:58.771Z,10.40
2023-04-29T02:53:27.041Z,10.14
2023-04-29T02:55:55.816Z,9.91
2023-04-29T02:58:23.965Z,9.72
2023-04-29T03:00:52.151Z,9.57
2023-04-29T03:03:20.293Z,9.43
2023-04-29T03:05:48.433Z,9.32
2023-04-29T03:08:16.494Z,9.21
2023-04-29T03:10:44.615Z,9.13
2023-04-29T03:13:12.555Z,9.04
2023-04-29T03:15:41.225Z,8.97
2023-04-29T03:18:09.881Z,8.90
2023-04-29T03:20:38.095Z,8.85
2023-04-29T03:23:06.040Z,8.83
2023-04-29T03:25:34.093Z,8.83
2023-04-29T03:28:02.277Z,8.84
2023-04-29T03:30:31.523Z,8.87
2023-04-29T03:32:59.701Z,8.90
2023-04-29T03:35:28.505Z,8.93
2023-04-29T03:38:31.996Z,8.96
2023-04-29T03:41:00.033Z,8.99
2023-04-29T03:43:28.120Z,9.01
2023-04-29T03:45:56.365Z,9.04
2023-04-29T03:48:26.245Z,9.07
2023-04-29T03:50:54.553Z,9.10
2023-04-29T03:53:23.025Z,9.13
2023-04-29T03:55:51.494Z,9.14
2023-04-29T03:58:19.561Z,9.16
2023-04-29T04:00:47.657Z,9.49
2023-04-29T04:03:19.191Z,11.47
2023-04-29T04:05:47.706Z,13.36
2023-04-29T04:08:16.554Z,14.11
2023-04-29T04:11:03.124Z,13.13
2023-04-29T04:13:37.359Z,12.13
2023-04-29T04:16:05.770Z,11.51
2023-04-29T04:18:33.818Z,11.07
2023-04-29T04:21:06.863Z,10.75
2023-04-29T04:23:35.656Z,10.47
2023-04-29T04:26:03.928Z,10.26
2023-04-29T04:29:00.990Z,10.05
2023-04-29T04:31:37.156Z,9.89
2023-04-29T04:34:05.234Z,10.14
2023-04-29T04:36:33.849Z,11.90
2023-04-29T04:39:01.847Z,13.23
2023-04-29T04:41:32.160Z,13.60
2023-04-29T04:44:00.424Z,12.81
2023-04-29T04:46:54.656Z,11.82
2023-04-29T04:49:37.237Z,11.21
2023-04-29T04:52:05.354Z,10.83
2023-04-29T04:54:34.048Z,10.55
2023-04-29T04:57:07.745Z,10.33
2023-04-29T04:59:35.865Z,10.49
2023-04-29T05:02:05.292Z,12.21
2023-04-29T05:04:33.456Z,13.71
2023-04-29T05:07:01.593Z,14.33
2023-04-29T05:09:33.068Z,13.41
2023-04-29T05:12:01.424Z,12.50
2023-04-29T05:14:32.225Z,11.86
2023-04-29T05:17:00.690Z,11.50
2023-04-29T05:19:29.073Z,11.62
2023-04-29T05:21:57.392Z,13.30
2023-04-29T05:24:26.445Z,14.54
2023-04-29T05:26:54.715Z,14.04
2023-04-29T05:29:22.751Z,13.28
2023-04-29T05:31:53.465Z,12.75
2023-04-29T05:34:21.318Z,12.33
2023-04-29T05:36:49.396Z,12.05
2023-04-29T05:39:17.784Z,11.81
2023-04-29T05:41:47.884Z,11.57
2023-04-29T05:44:29.232Z,11.32
2023-04-29T05:46:57.156Z,11.46
2023-04-29T05:49:25.063Z,13.10
2023-04-29T05:51:53.025Z,14.53
2023-04-29T05:54:22.434Z,15.05
2023-04-29T05:56:51.027Z,14.08
2023-04-29T05:59:19.148Z,13.07
2023-04-29T06:01:51.226Z,12.35
2023-04-29T06:04:19.349Z,11.86
2023-04-29T06:07:09.159Z,11.96
2023-04-29T06:09:59.178Z,13.77
2023-04-29T06:12:28.277Z,14.58
2023-04-29T06:14:56.508Z,13.75
2023-04-29T06:17:24.564Z,12.80
2023-04-29T06:19:53.418Z,12.09
2023-04-29T06:22:22.294Z,11.60
2023-04-29T06:24:52.885Z,11.65
2023-04-29T06:27:36.384Z,13.39
2023-04-29T06:30:04.759Z,14.64
2023-04-29T06:32:34.185Z,15.08
2023-04-29T06:35:02.579Z,14.19
2023-04-29T06:37:47.952Z,13.12
2023-04-29T06:40:42.049Z,12.37
2023-04-29T06:43:33.327Z,12.39
2023-04-29T06:46:20.119Z,14.09
2023-04-29T06:49:04.318Z,15.32
2023-04-29T06:51:33.555Z,15.62
2023-04-29T06:54:01.667Z,14.62
2023-04-29T06:56:29.674Z,13.56
2023-04-29T06:58:57.547Z,12.80
2023-04-29T07:01:25.816Z,12.28
2023-04-29T07:03:53.984Z,12.23
2023-04-29T07:06:22.230Z,13.62
2023-04-29T07:08:50.345Z,14.87
2023-04-29T07:11:19.294Z,15.33
2023-04-29T07:13:47.366Z,14.43
2023-04-29T07:16:18.377Z,13.47
2023-04-29T07:18:46.481Z,12.78
2023-04-29T07:21:14.519Z,12.70
2023-04-29T07:23:43.567Z,14.16
2023-04-29T07:26:16.907Z,15.40
2023-04-29T07:28:46.765Z,15.78
2023-04-29T07:31:15.074Z,14.83
2023-04-29T07:33:45.451Z,13.85
2023-04-29T07:36:13.378Z,13.21
2023-04-29T07:38:41.780Z,12.74
2023-04-29T07:41:09.737Z,12.74
2023-04-29T07:43:38.188Z,14.23
2023-04-29T07:46:07.445Z,15.52
2023-04-29T07:48:39.561Z,15.90
2023-04-29T07:51:13.385Z,14.98
2023-04-29T07:53:43.598Z,13.98
2023-04-29T07:56:11.628Z,13.35
2023-04-29T07:58:40.848Z,13.25
2023-04-29T08:01:10.448Z,14.58
2023-04-29T08:03:41.113Z,15.85
2023-04-29T08:06:10.357Z,16.17
2023-04-29T08:08:38.458Z,15.20
2023-04-29T08:11:06.816Z,14.24
2023-04-29T08:13:37.887Z,13.54
2023-04-29T08:16:06.584Z,13.09
2023-04-29T08:18:36.832Z,13.06
2023-04-29T08:21:05.410Z,14.43
2023-04-29T08:23:33.344Z,15.65
2023-04-29T08:26:01.521Z,16.09
2023-04-29T08:28:29.613Z,15.25
2023-04-29T08:30:58.009Z,14.33
2023-04-29T08:33:25.872Z,13.68
2023-04-29T08:36:03.976Z,13.61
2023-04-29T08:38:32.107Z,15.19
2023-04-29T08:41:01.363Z,16.56
2023-04-29T08:43:29.608Z,17.03
2023-04-29T08:45:59.245Z,16.06
2023-04-29T08:48:29.029Z,15.04
2023-04-29T08:50:58.859Z,14.33
2023-04-29T08:53:26.841Z,14.16
2023-04-29T08:55:56.530Z,15.55
2023-04-29T08:58:26.752Z,16.88
2023-04-29T09:00:54.990Z,17.34
2023-04-29T09:03:34.984Z,16.41
2023-04-29T09:06:04.889Z,15.43
2023-04-29T09:08:33.684Z,14.81
2023-04-29T09:11:01.667Z,14.41
2023-04-29T09:13:31.339Z,14.53
2023-04-29T09:15:59.319Z,16.12
2023-04-29T09:18:47.800Z,17.40
2023-04-29T09:21:27.406Z,17.77
2023-04-29T09:23:57.604Z,16.75
2023-04-29T09:26:27.141Z,15.88
2023-04-29T09:29:14.216Z,15.37
2023-04-29T09:31:42.818Z,15.03
2023-04-29T09:34:14.717Z,14.84
2023-04-29T09:36:47.876Z,14.72
2023-04-29T09:39:17.604Z,15.08
2023-04-29T09:41:54.461Z,16.81
2023-04-29T09:44:27.554Z,18.18
2023-04-29T09:47:03.973Z,17.70
2023-04-29T09:49:41.304Z,17.00
2023-04-29T09:52:14.176Z,16.48
2023-04-29T09:54:43.572Z,16.10
2023-04-29T09:57:12.828Z,15.90
2023-04-29T09:59:42.103Z,15.76
2023-04-29T10:02:18.026Z,15.72
2023-04-29T10:04:48.715Z,15.78
2023-04-29T10:07:18.345Z,15.85
2023-04-29T10:09:48.021Z,15.92
2023-04-29T10:12:18.706Z,16.05
2023-04-29T10:15:06.398Z,16.22
2023-04-29T10:17:47.850Z,16.33
2023-04-29T10:20:24.445Z,16.43
2023-04-29T10:22:57.162Z,16.50
2023-04-29T10:25:28.188Z,16.60
2023-04-29T10:27:56.482Z,16.79
2023-04-29T10:30:24.429Z,17.02
2023-04-29T10:32:53.060Z,17.21
2023-04-29T10:35:24.595Z,17.35
2023-04-29T10:37:53.696Z,17.45
2023-04-29T10:40:46.845Z,17.54
2023-04-29T10:43:15.895Z,17.49
2023-04-29T10:45:43.853Z,17.28
2023-04-29T10:48:13.384Z,17.10
2023-04-29T10:50:47.536Z,16.92
2023-04-29T10:53:17.078Z,16.78
2023-04-29T10:55:48.661Z,16.69
2023-04-29T10:58:41.123Z,16.65
2023-04-29T11:01:16.755Z,16.68
2023-04-29T11:04:01.160Z,16.73
2023-04-29T11:06:35.174Z,16.78
2023-04-29T11:09:26.198Z,16.79
2023-04-29T11:12:03.639Z,16.70
2023-04-29T11:14:50.037Z,16.64
2023-04-29T11:17:23.616Z,16.59
2023-04-29T11:19:53.382Z,16.49
2023-04-29T11:22:26.945Z,16.36
2023-04-29T11:25:00.782Z,16.22
2023-04-29T11:27:35.589Z,16.09
2023-04-29T11:30:07.767Z,16.02
2023-04-29T11:32:41.413Z,15.96
2023-04-29T11:35:14.689Z,15.94
2023-04-29T11:37:44.492Z,15.94
2023-04-29T11:40:13.806Z,15.91
2023-04-29T11:42:46.721Z,15.89
2023-04-29T11:45:15.738Z,15.88
2023-04-29T11:47:48.588Z,15.87
2023-04-29T11:50:19.866Z,15.82
2023-04-29T11:52:48.941Z,15.70
2023-04-29T11:55:17.070Z,15.64
2023-04-29T11:57:45.159Z,15.61
2023-04-29T12:00:14.038Z,15.60
2023-04-29T12:02:47.484Z,15.56
2023-04-29T12:05:17.376Z,15.49
2023-04-29T12:07:45.803Z,15.46
2023-04-29T12:10:13.904Z,15.42
2023-04-29T12:12:44.299Z,15.38
2023-04-29T12:15:13.617Z,15.36
2023-04-29T12:17:43.492Z,15.35
2023-04-29T12:20:12.862Z,15.41
2023-04-29T12:22:44.066Z,15.46
2023-04-29T12:25:12.564Z,15.46
2023-04-29T12:27:43.948Z,15.48
2023-04-29T12:30:12.690Z,15.54
2023-04-29T12:32:41.771Z,15.54
2023-04-29T12:35:17.714Z,15.48
2023-04-29T12:37:51.054Z,15.46
2023-04-29T12:40:20.974Z,15.42
2023-04-29T12:42:49.086Z,15.38
2023-04-29T12:45:34.500Z,15.34
2023-04-29T12:48:05.604Z,15.33
2023-04-29T12:50:39.617Z,15.33
2023-04-29T12:53:08.915Z,15.34
2023-04-29T12:55:40.370Z,15.34
2023-04-29T12:58:09.553Z,15.38
2023-04-29T13:00:38.123Z,15.41
2023-04-29T13:03:06.475Z,15.44
2023-04-29T13:05:34.976Z,15.33
2023-04-29T13:08:03.399Z,15.16
2023-04-29T13:10:31.504Z,15.03
2023-04-29T13:12:59.644Z,15.08
2023-04-29T13:15:28.117Z,16.58
2023-04-29T13:17:57.296Z,17.84
2023-04-29T13:20:25.337Z,17.38
2023-04-29T13:22:53.278Z,16.71
2023-04-29T13:25:21.275Z,16.37
2023-04-29T13:27:49.883Z,16.27
2023-04-29T13:30:17.830Z,16.30
2023-04-29T13:32:51.589Z,16.31
2023-04-29T13:35:23.324Z,16.37
2023-04-29T13:37:51.289Z,16.41
2023-04-29T13:40:21.152Z,16.38
2023-04-29T13:42:53.309Z,16.37
2023-04-29T13:45:29.129Z,16.37
2023-04-29T13:48:09.610Z,16.47
2023-04-29T14:03:20.780Z,17.58
2023-04-29T14:05:48.986Z,18.12
2023-04-29T14:08:16.973Z,18.63
2023-04-29T14:10:44.907Z,19.05
2023-04-29T14:13:12.813Z,19.26
2023-04-29T14:15:41.336Z,19.19
2023-04-29T14:18:10.801Z,19.00
2023-04-29T14:20:39.404Z,19.05
2023-04-29T14:23:07.384Z,19.46
2023-04-29T14:25:35.333Z,19.76
2023-04-29T14:28:04.159Z,19.70
2023-04-29T14:30:32.071Z,19.24
2023-04-29T14:33:00.011Z,18.72
2023-04-29T14:35:28.301Z,18.30
2023-04-29T14:37:56.329Z,18.03
2023-04-29T14:40:24.588Z,17.78
2023-04-29T14:42:52.592Z,17.49
2023-04-29T14:45:20.498Z,17.23
2023-04-29T14:47:48.531Z,16.98
2023-04-29T14:50:16.647Z,16.73
2023-04-29T14:52:44.512Z,16.52
2023-04-29T14:55:12.502Z,16.40
2023-04-29T14:57:40.501Z,16.29
2023-04-29T15:00:09.350Z,16.19
2023-04-29T15:02:37.259Z,16.07
2023-04-29T15:05:05.640Z,15.93
2023-04-29T15:07:33.866Z,15.82
2023-04-29T15:10:02.366Z,15.72
2023-04-29T15:12:30.394Z,15.63
2023-04-29T15:14:58.256Z,15.56
2023-04-29T15:17:27.235Z,15.53
2023-04-29T15:19:55.424Z,15.54
2023-04-29T15:22:24.342Z,15.56
2023-04-29T15:24:53.944Z,15.56
2023-04-29T15:27:23.098Z,15.54
2023-04-29T15:29:54.874Z,15.50
2023-04-29T15:32:24.879Z,15.48
2023-04-29T15:34:52.854Z,15.51
2023-04-29T15:37:21.587Z,15.52
2023-04-29T15:39:50.946Z,15.52
2023-04-29T15:42:19.139Z,15.48
2023-04-29T15:44:47.301Z,15.44
2023-04-29T15:47:16.712Z,15.39
2023-04-29T15:49:45.741Z,15.31
2023-04-29T15:52:14.472Z,15.23
2023-04-29T15:54:43.031Z,15.19
2023-04-29T15:57:11.228Z,15.17
2023-04-29T15:59:39.142Z,15.12
2023-04-29T16:02:12.097Z,15.06
2023-04-29T16:04:40.903Z,15.00
2023-04-29T16:07:09.266Z,14.95
2023-04-29T16:09:37.257Z,14.91
2023-04-29T16:12:05.893Z,15.01
2023-04-29T16:14:33.993Z,16.48
2023-04-29T16:17:02.082Z,17.99
2023-04-29T16:19:30.460Z,18.15
2023-04-29T16:21:58.834Z,16.90
2023-04-29T16:24:27.835Z,16.82
2023-04-29T16:26:56.399Z,17.72
2023-04-29T16:29:25.378Z,18.22
2023-04-29T16:31:53.488Z,18.66
2023-04-29T16:34:21.982Z,18.89
2023-04-29T16:36:49.887Z,18.66
2023-04-29T16:39:17.804Z,17.46
2023-04-29T16:41:45.707Z,16.76
2023-04-29T16:44:13.654Z,17.66
2023-04-29T16:46:41.822Z,18.57
2023-04-29T16:49:10.105Z,19.01
2023-04-29T16:51:38.075Z,19.28
2023-04-29T16:54:08.130Z,19.07
2023-04-29T16:56:36.194Z,17.69
2023-04-29T16:59:04.184Z,16.73
2023-04-29T17:01:32.343Z,17.56
2023-04-29T17:04:01.346Z,18.34
2023-04-29T17:06:30.149Z,18.73
2023-04-29T17:08:58.411Z,19.01
2023-04-29T17:11:26.452Z,18.86
2023-04-29T17:13:54.359Z,17.49
2023-04-29T17:16:22.329Z,16.63
2023-04-29T17:18:50.311Z,17.46
2023-04-29T17:21:18.399Z,18.34
2023-04-29T17:23:46.367Z,18.78
2023-04-29T17:26:14.258Z,18.66
2023-04-29T17:28:42.368Z,17.33
2023-04-29T17:31:10.545Z,16.23
2023-04-29T17:33:40.039Z,16.87
2023-04-29T17:36:07.989Z,17.65
2023-04-29T17:38:36.284Z,17.98
2023-04-29T17:41:04.254Z,18.25
2023-04-29T17:43:35.473Z,18.38
2023-04-29T17:46:03.838Z,18.59
2023-04-29T17:48:32.540Z,18.80
2023-04-29T17:51:00.540Z,19.07
2023-04-29T17:53:28.684Z,19.24
2023-04-29T17:55:57.010Z,19.13
2023-04-29T17:58:25.008Z,17.99
2023-04-29T18:00:53.044Z,17.20
2023-04-29T18:03:21.396Z,18.06
2023-04-29T18:05:50.060Z,18.80
2023-04-29T18:08:17.952Z,19.16
2023-04-29T18:10:46.195Z,19.39
2023-04-29T18:13:14.632Z,19.59
2023-04-29T18:15:43.068Z,19.39
2023-04-29T18:18:11.057Z,18.05
2023-04-29T18:20:43.081Z,17.17
2023-04-29T18:23:11.629Z,18.02
2023-04-29T18:25:40.121Z,18.84
2023-04-29T18:28:24.228Z,19.26
2023-04-29T18:30:53.134Z,19.48
2023-04-29T18:33:21.528Z,19.64
2023-04-29T18:35:49.623Z,19.52
2023-04-29T18:38:17.633Z,18.27
2023-04-29T18:40:45.607Z,17.33
2023-04-29T18:43:17.230Z,18.07
2023-04-29T18:45:45.950Z,18.87
2023-04-29T18:48:15.129Z,19.30
2023-04-29T18:50:43.187Z,19.58
2023-04-29T18:53:11.099Z,19.46
2023-04-29T18:55:39.386Z,18.21
2023-04-29T18:58:07.442Z,17.36
2023-04-29T19:00:35.484Z,18.18
2023-04-29T19:03:03.523Z,18.98
2023-04-29T19:05:31.913Z,19.30
2023-04-29T19:07:59.836Z,19.52
2023-04-29T19:10:27.760Z,19.30
2023-04-29T19:12:55.662Z,18.00
2023-04-29T19:15:27.915Z,17.13
2023-04-29T19:17:56.013Z,17.92
2023-04-29T19:20:27.812Z,18.77
2023-04-29T19:22:56.954Z,19.23
2023-04-29T19:25:26.325Z,19.50
2023-04-29T19:27:54.346Z,19.44
2023-04-29T19:30:22.215Z,18.19
2023-04-29T19:32:50.722Z,17.32
2023-04-29T19:35:18.705Z,18.08
2023-04-29T19:37:46.665Z,18.83
2023-04-29T19:40:14.544Z,19.20
2023-04-29T19:42:42.508Z,19.42
2023-04-29T19:45:12.808Z,19.25
2023-04-29T19:47:41.123Z,17.95
2023-04-29T19:50:09.778Z,17.08
2023-04-29T19:52:37.772Z,17.81
2023-04-29T19:55:08.190Z,18.57
2023-04-29T19:57:36.190Z,18.99
2023-04-29T20:00:05.183Z,19.22
2023-04-29T20:02:34.855Z,19.45
2023-04-29T20:05:03.301Z,19.31
2023-04-29T20:07:31.212Z,18.11
2023-04-29T20:09:59.130Z,17.18
2023-04-29T20:12:27.092Z,17.85
2023-04-29T20:14:55.035Z,18.66
2023-04-29T20:17:23.066Z,19.09
2023-04-29T20:19:52.089Z,19.31
2023-04-29T20:22:20.546Z,19.33
2023-04-29T20:24:48.408Z,19.36
2023-04-29T20:27:16.597Z,19.41
2023-04-29T20:29:45.074Z,19.28
2023-04-29T20:32:13.129Z,18.10
2023-04-29T20:34:43.319Z,17.23
2023-04-29T20:37:11.247Z,17.94
2023-04-29T20:39:39.996Z,18.64
2023-04-29T20:42:08.449Z,18.96
2023-04-29T20:44:36.975Z,19.04
2023-04-29T20:47:06.160Z,19.08
2023-04-29T20:49:34.133Z,19.14
2023-04-29T20:52:02.205Z,19.28
2023-04-29T20:54:30.525Z,19.10
2023-04-29T20:56:58.455Z,17.92
2023-04-29T20:59:26.432Z,17.02
2023-04-29T21:01:54.467Z,17.59
2023-04-29T21:04:23.338Z,18.44
2023-04-29T21:06:52.727Z,18.79
2023-04-29T21:09:21.554Z,18.89
2023-04-29T21:11:49.478Z,18.86
2023-04-29T21:14:17.591Z,18.88
2023-04-29T21:16:45.658Z,19.04
2023-04-29T21:19:13.614Z,18.33
2023-04-29T21:21:41.663Z,17.15
2023-04-29T21:24:10.099Z,16.36
2023-04-29T21:26:38.022Z,17.18
2023-04-29T21:29:05.939Z,17.90
2023-04-29T21:31:33.819Z,18.09
2023-04-29T21:34:01.796Z,18.08
2023-04-29T21:36:29.681Z,17.94
2023-04-29T21:38:57.644Z,17.76
2023-04-29T21:41:31.200Z,17.74
2023-04-29T21:44:02.014Z,17.89
2023-04-29T21:46:33.464Z,18.00
2023-04-29T21:49:03.039Z,18.06
2023-04-29T21:51:32.182Z,18.36
2023-04-29T21:54:00.126Z,18.32
2023-04-29T21:56:28.058Z,18.22
2023-04-29T21:58:56.024Z,16.57
2023-04-29T22:01:27.683Z,15.84
2023-04-29T22:03:57.146Z,16.40
2023-04-29T22:06:25.594Z,17.05
2023-04-29T22:08:53.703Z,17.40
2023-04-29T22:11:22.158Z,17.59
2023-04-29T22:13:50.606Z,17.68
2023-04-29T22:16:23.611Z,17.29
2023-04-29T22:18:52.017Z,17.57
2023-04-29T22:21:19.897Z,17.66
2023-04-29T22:23:49.283Z,17.47
2023-04-29T22:26:17.364Z,17.80
2023-04-29T22:28:45.553Z,17.87
2023-04-29T22:31:13.444Z,17.47
2023-04-29T22:33:41.341Z,17.49
2023-04-29T22:36:09.284Z,17.69
2023-04-29T22:38:38.008Z,17.60
2023-04-29T22:41:06.510Z,17.84
2023-04-29T22:43:34.402Z,17.57
2023-04-29T22:46:02.405Z,17.69
2023-04-29T22:48:30.420Z,17.56
2023-04-29T22:50:59.627Z,17.66
2023-04-29T22:53:27.743Z,17.73
2023-04-29T22:55:58.110Z,17.49
2023-04-29T22:58:26.635Z,17.63
2023-04-29T23:00:59.300Z,17.64
2023-04-29T23:03:27.830Z,17.70
2023-04-29T23:05:59.699Z,17.86
2023-04-29T23:08:28.235Z,17.81
2023-04-29T23:10:56.146Z,17.56
2023-04-29T23:13:24.400Z,17.63
2023-04-29T23:15:56.182Z,17.47
2023-04-29T23:18:24.135Z,17.54
2023-04-29T23:20:52.117Z,17.76
2023-04-29T23:23:20.301Z,17.72
2023-04-29T23:25:49.155Z,17.75
2023-04-29T23:28:17.018Z,17.49
2023-04-29T23:30:47.573Z,17.40
2023-04-29T23:33:15.558Z,17.35
2023-04-29T23:35:50.778Z,17.24
2023-04-29T23:38:19.529Z,16.90
2023-04-29T23:40:47.687Z,17.13
2023-04-29T23:43:16.136Z,17.38
2023-04-29T23:45:46.037Z,17.68
2023-04-29T23:48:16.155Z,17.81
2023-04-29T23:50:44.099Z,17.46
2023-04-29T23:53:11.979Z,17.51
2023-04-29T23:55:40.000Z,17.34
2023-04-29T23:58:07.986Z,17.82
